Terminal Aerodrome Forecast
Issued by NWS

Home | Current Version | Previous Version | Text Only | Print | Product List | Glossary On
Versions: 1 2 3 4 5 6 7 8 9 10 11 12 13 14 15 16 17 18
000
FTUS44 KLIX 261430 AAA
TAFHUM
TAF AMD
KHUM 261430Z 2615/2712 16012KT P6SM BKN020
     FM262200 18019G27KT P6SM BKN025
     FM270000 19017KT P6SM BKN015
     FM270600 31007KT 3SM -TSRA OVC015CB
     FM270900 32006KT P6SM BKN025 OVC040=

USA.gov is the U.S. government's official web portal to all federal, state and local government web resources and services.